Time;durP1;ratioP1;P1;durP2;ratioP2;P2;SDS_P1;SDS_P2;PMS_P1;PMS_P2;Temp;Humidity;BMP_temperature;BMP_pressure;BME280_temperature;BME280_humidity;BME280_pressure;Samples;Min_cycle;Max_cycle;Signal;HPM_P1;HPM_P2
2022/04/02 00:00:45;;;;;;;0.93;0.50;;;18.30;47.80;;;;;;4992373;28;20031;-80
2022/04/02 00:03:11;;;;;;;1.25;0.55;;;18.30;47.70;;;;;;4993817;28;20088;-79
2022/04/02 00:05:37;;;;;;;0.70;0.45;;;18.20;47.70;;;;;;4993403;28;20034;-80
2022/04/02 00:08:03;;;;;;;2.03;0.75;;;18.20;47.60;;;;;;4993742;28;20028;-80
2022/04/02 00:10:29;;;;;;;1.60;0.70;;;18.20;47.60;;;;;;4993447;28;20034;-80
2022/04/02 00:12:56;;;;;;;2.65;0.65;;;18.20;47.60;;;;;;4993626;28;20026;-80
2022/04/02 00:15:22;;;;;;;2.35;0.88;;;18.20;47.60;;;;;;4975470;28;20080;-77
2022/04/02 00:17:48;;;;;;;3.78;0.60;;;18.20;47.60;;;;;;4993874;28;20101;-79
2022/04/02 00:20:14;;;;;;;1.15;0.45;;;18.20;47.50;;;;;;4992589;28;20097;-80
2022/04/02 00:23:35;;;;;;;1.55;0.63;;;18.20;47.50;;;;;;4975808;28;20026;-80
2022/04/02 00:25:25;;;;;;;1.58;0.50;;;18.20;47.40;;;;;;4993003;28;20454;-80
2022/04/02 00:27:51;;;;;;;1.73;0.70;;;18.20;47.40;;;;;;4976169;28;20030;-78
2022/04/02 00:30:16;;;;;;;1.48;0.50;;;18.20;47.40;;;;;;4993282;28;20026;-79
2022/04/02 00:32:42;;;;;;;1.58;0.60;;;18.20;47.40;;;;;;4993085;28;20022;-80
2022/04/02 00:35:09;;;;;;;1.40;0.65;;;18.20;47.40;;;;;;4993052;28;20498;-82
2022/04/02 00:37:34;;;;;;;2.78;0.60;;;18.20;47.40;;;;;;4992919;28;20105;-79
2022/04/02 00:40:00;;;;;;;1.15;0.43;;;18.20;47.30;;;;;;4993082;28;20460;-80
2022/04/02 00:42:26;;;;;;;1.52;0.57;;;18.20;47.30;;;;;;4992614;28;20027;-81
2022/04/02 00:44:52;;;;;;;0.77;0.40;;;18.20;47.30;;;;;;4993006;28;20042;-81
2022/04/02 00:47:17;;;;;;;1.33;0.60;;;18.20;47.30;;;;;;4993355;28;20022;-80
2022/04/02 00:49:43;;;;;;;1.73;0.50;;;18.20;47.30;;;;;;4992691;28;20026;-78
2022/04/02 00:52:09;;;;;;;1.42;0.70;;;18.20;47.20;;;;;;4993030;28;20030;-78
2022/04/02 00:54:34;;;;;;;1.40;0.63;;;18.20;47.20;;;;;;4992629;28;20027;-77
2022/04/02 00:57:01;;;;;;;2.08;0.57;;;18.20;47.20;;;;;;4975168;28;20030;-79
2022/04/02 00:59:26;;;;;;;1.17;0.50;;;18.20;47.20;;;;;;4992714;28;20113;-76
2022/04/02 01:01:52;;;;;;;1.67;0.60;;;18.20;47.10;;;;;;4975536;28;20173;-77
2022/04/02 01:04:18;;;;;;;2.10;0.50;;;18.20;47.20;;;;;;4992550;28;20509;-78
2022/04/02 01:06:45;;;;;;;1.55;0.60;;;18.20;47.10;;;;;;4992358;28;20564;-77
2022/04/02 01:09:11;;;;;;;1.27;0.50;;;18.20;47.10;;;;;;4992567;28;20122;-76
2022/04/02 01:11:42;;;;;;;1.15;0.40;;;18.20;47.00;;;;;;4975200;28;20101;-80
2022/04/02 01:14:08;;;;;;;1.65;0.63;;;18.20;47.00;;;;;;4992507;28;20442;-77
2022/04/02 01:16:34;;;;;;;1.30;0.50;;;18.20;47.00;;;;;;4991836;28;20045;-77
2022/04/02 01:19:01;;;;;;;2.30;0.70;;;18.20;46.90;;;;;;4992370;28;20033;-76
2022/04/02 01:21:28;;;;;;;1.85;0.47;;;18.20;46.90;;;;;;4991754;28;20015;-77
2022/04/02 01:23:55;;;;;;;1.58;0.50;;;18.20;46.90;;;;;;4992400;28;20031;-78
2022/04/02 01:26:21;;;;;;;1.85;1.00;;;18.20;46.90;;;;;;4992302;28;20030;-77
2022/04/02 01:28:53;;;;;;;2.63;0.70;;;18.20;46.90;;;;;;4992543;28;20027;-78
2022/04/02 01:31:20;;;;;;;1.73;0.60;;;18.20;46.80;;;;;;4992319;28;20478;-79
2022/04/02 01:33:48;;;;;;;2.90;0.70;;;18.20;46.80;;;;;;4992449;28;20018;-79
2022/04/02 01:36:14;;;;;;;5.00;0.70;;;18.20;46.80;;;;;;4974377;28;20027;-79
2022/04/02 01:38:40;;;;;;;1.10;0.60;;;18.10;46.80;;;;;;4991792;28;20028;-78
2022/04/02 01:41:06;;;;;;;1.08;0.50;;;18.10;46.70;;;;;;4974576;28;20494;-78
2022/04/02 01:43:33;;;;;;;1.48;0.50;;;18.10;46.80;;;;;;4991658;28;20033;-77
2022/04/02 01:45:59;;;;;;;1.02;0.50;;;18.10;46.70;;;;;;4991801;28;20402;-78
2022/04/02 01:48:25;;;;;;;1.83;0.50;;;18.10;46.60;;;;;;4991132;28;20022;-77
2022/04/02 01:50:51;;;;;;;2.72;0.50;;;18.10;46.60;;;;;;4991937;28;20096;-77
2022/04/02 01:53:18;;;;;;;0.95;0.77;;;18.10;46.70;;;;;;4992306;28;20077;-80
2022/04/02 01:55:45;;;;;;;2.80;0.43;;;18.10;46.60;;;;;;4991663;28;20033;-80
2022/04/02 01:58:11;;;;;;;1.40;0.50;;;18.10;46.60;;;;;;4991935;28;20026;-78
2022/04/02 02:00:36;;;;;;;2.08;0.57;;;18.10;46.60;;;;;;4991572;28;20408;-80
2022/04/02 02:03:02;;;;;;;1.60;0.60;;;18.10;46.50;;;;;;4973863;28;20160;-79
2022/04/02 02:05:28;;;;;;;1.88;0.60;;;18.10;46.50;;;;;;4991200;28;20049;-79
2022/04/02 02:07:53;;;;;;;1.85;0.50;;;18.10;46.50;;;;;;4991744;28;20494;-80
2022/04/02 02:10:20;;;;;;;1.65;0.63;;;18.20;46.50;;;;;;4991963;28;20399;-80
2022/04/02 02:12:46;;;;;;;2.30;0.50;;;18.10;46.50;;;;;;4991651;28;20062;-80
2022/04/02 02:15:16;;;;;;;1.58;0.60;;;18.10;46.40;;;;;;4991681;28;20117;-79
2022/04/02 02:17:49;;;;;;;1.83;0.65;;;18.10;46.40;;;;;;4991420;28;20026;-80
2022/04/02 02:20:17;;;;;;;2.25;0.52;;;18.10;46.40;;;;;;4991591;28;20031;-78
2022/04/02 02:22:44;;;;;;;1.20;0.68;;;18.10;46.30;;;;;;4973533;28;20014;-80
2022/04/02 02:25:13;;;;;;;2.20;0.35;;;18.10;46.30;;;;;;4991519;28;20069;-81
2022/04/02 02:27:41;;;;;;;2.90;0.70;;;18.10;46.30;;;;;;4991264;28;20026;-80
2022/04/02 02:30:10;;;;;;;2.55;0.70;;;18.10;46.40;;;;;;4974100;28;20030;-79
2022/04/02 02:32:37;;;;;;;1.77;0.50;;;18.10;46.30;;;;;;4991195;28;20073;-80
2022/04/02 02:38:09;;;;;;;3.08;0.80;;;18.10;46.30;;;;;;4991732;28;20108;-78
2022/04/02 02:40:38;;;;;;;1.27;0.60;;;18.10;46.30;;;;;;4991088;28;20058;-80
2022/04/02 02:43:06;;;;;;;1.88;0.40;;;18.10;46.30;;;;;;4991445;28;20080;-79
2022/04/02 02:45:32;;;;;;;2.15;0.65;;;18.10;46.30;;;;;;4994791;28;20433;-80
2022/04/02 02:47:58;;;;;;;1.45;0.50;;;18.10;46.50;;;;;;4995219;28;20081;-80
2022/04/02 02:50:25;;;;;;;1.65;0.60;;;18.10;46.20;;;;;;4977197;28;20118;-80
2022/04/02 02:52:51;;;;;;;1.55;0.60;;;18.10;46.20;;;;;;4995120;28;20034;-79
2022/04/02 02:55:18;;;;;;;2.72;0.60;;;18.10;46.20;;;;;;4977753;28;20030;-78
2022/04/02 02:57:45;;;;;;;1.80;0.60;;;18.10;46.20;;;;;;4994764;28;20106;-77
2022/04/02 03:00:13;;;;;;;1.42;0.60;;;18.10;46.10;;;;;;4994849;28;20062;-80
2022/04/02 03:02:39;;;;;;;2.00;0.50;;;18.10;46.10;;;;;;4994545;28;20033;-80
2022/04/02 03:05:13;;;;;;;1.77;0.50;;;18.10;46.10;;;;;;4977248;28;20034;-79
2022/04/02 03:07:50;;;;;;;1.42;0.40;;;18.10;46.10;;;;;;4994593;28;20022;-79
2022/04/02 03:10:25;;;;;;;1.83;0.60;;;18.10;46.10;;;;;;4995170;28;20030;-79
2022/04/02 03:12:52;;;;;;;2.55;0.50;;;18.10;46.10;;;;;;4977320;28;20088;-77
2022/04/02 03:15:18;;;;;;;1.70;0.70;;;18.10;46.00;;;;;;4977564;28;20068;-79
2022/04/02 03:17:45;;;;;;;1.55;0.75;;;18.10;46.00;;;;;;4994461;28;20022;-79
2022/04/02 03:20:18;;;;;;;1.42;0.60;;;18.10;46.00;;;;;;4994560;28;20116;-79
2022/04/02 03:22:48;;;;;;;0.80;0.38;;;18.10;46.00;;;;;;4976748;28;20018;-80
2022/04/02 03:25:19;;;;;;;1.63;0.40;;;18.10;46.00;;;;;;4994282;28;20402;-79
2022/04/02 03:27:46;;;;;;;1.52;0.60;;;18.10;46.00;;;;;;4994444;28;20025;-79
2022/04/02 03:30:14;;;;;;;1.55;0.40;;;18.10;45.90;;;;;;4976996;28;20034;-79
2022/04/02 03:32:40;;;;;;;1.40;0.68;;;18.10;46.00;;;;;;4976806;28;20019;-79
2022/04/02 03:35:07;;;;;;;1.67;0.40;;;18.10;45.90;;;;;;4976905;28;20026;-80
2022/04/02 03:37:37;;;;;;;3.00;0.50;;;18.10;46.00;;;;;;4976608;28;20105;-80
2022/04/02 03:40:08;;;;;;;2.70;0.60;;;18.10;45.90;;;;;;4976655;28;20038;-80
2022/04/02 03:42:35;;;;;;;1.50;0.40;;;18.10;45.80;;;;;;4993908;28;20022;-80
2022/04/02 03:45:01;;;;;;;1.48;0.60;;;18.00;45.70;;;;;;4994134;28;20027;-79
2022/04/02 03:47:27;;;;;;;1.70;0.50;;;18.10;45.80;;;;;;4993890;28;20026;-81
2022/04/02 03:49:52;;;;;;;1.70;0.60;;;18.10;45.80;;;;;;4993927;28;20032;-78
2022/04/02 03:52:18;;;;;;;1.52;0.90;;;18.10;45.80;;;;;;4994268;28;20034;-79
2022/04/02 03:54:45;;;;;;;1.13;0.50;;;18.10;45.80;;;;;;4993046;28;20062;-79
2022/04/02 03:57:12;;;;;;;2.33;0.80;;;18.00;45.70;;;;;;4993430;28;20030;-79
2022/04/02 03:59:40;;;;;;;1.88;0.50;;;18.00;45.70;;;;;;4993712;28;20101;-80
2022/04/02 04:02:07;;;;;;;3.17;0.47;;;18.00;45.70;;;;;;4993418;28;20109;-80
2022/04/02 04:04:33;;;;;;;1.45;0.40;;;18.10;45.70;;;;;;4993574;28;20069;-80
2022/04/02 04:06:59;;;;;;;0.80;0.45;;;18.00;45.70;;;;;;4993888;28;20030;-80
2022/04/02 04:09:25;;;;;;;1.52;0.65;;;18.00;45.70;;;;;;4993667;28;20098;-81
2022/04/02 04:11:50;;;;;;;1.88;0.40;;;18.10;45.70;;;;;;4976405;28;20499;-77
2022/04/02 04:14:16;;;;;;;1.50;0.50;;;18.00;45.70;;;;;;4993910;28;20414;-80
2022/04/02 04:16:43;;;;;;;1.73;0.70;;;18.00;45.70;;;;;;4975560;28;20446;-80
2022/04/02 04:19:09;;;;;;;1.17;0.50;;;18.00;45.70;;;;;;4993595;28;20022;-80
2022/04/02 04:21:35;;;;;;;1.42;0.50;;;18.00;45.70;;;;;;4993285;28;20165;-80
2022/04/02 04:24:01;;;;;;;1.10;0.50;;;18.00;45.60;;;;;;4993423;28;20542;-81
2022/04/02 04:26:27;;;;;;;1.05;0.60;;;18.00;45.60;;;;;;4975772;28;20089;-80
2022/04/02 04:28:53;;;;;;;1.85;0.40;;;18.00;45.60;;;;;;4993272;28;20031;-78
2022/04/02 04:31:18;;;;;;;1.67;0.57;;;18.00;45.50;;;;;;4993334;28;20035;-80
2022/04/02 04:33:45;;;;;;;2.47;0.60;;;18.00;45.50;;;;;;4993036;28;20022;-80
2022/04/02 04:36:11;;;;;;;1.00;0.50;;;18.00;45.60;;;;;;4993329;28;20065;-80
2022/04/02 04:38:37;;;;;;;0.90;0.50;;;18.00;45.60;;;;;;4993069;28;20022;-79
2022/04/02 04:41:03;;;;;;;2.78;1.00;;;18.00;45.50;;;;;;4993183;28;20102;-78
2022/04/02 04:43:30;;;;;;;2.20;0.80;;;18.00;45.50;;;;;;4992911;28;20450;-81
2022/04/02 04:45:56;;;;;;;2.60;0.60;;;18.00;45.50;;;;;;4975099;28;20045;-78
2022/04/02 04:48:22;;;;;;;1.52;0.60;;;18.00;45.50;;;;;;4975226;28;20030;-79
2022/04/02 04:50:48;;;;;;;1.88;0.50;;;18.00;45.40;;;;;;4992799;28;20193;-79
2022/04/02 04:53:14;;;;;;;1.30;0.50;;;18.00;45.40;;;;;;4992932;28;20062;-79
2022/04/02 04:55:40;;;;;;;1.60;0.60;;;18.00;45.40;;;;;;4992718;28;20097;-79
2022/04/02 04:58:06;;;;;;;1.45;0.63;;;18.00;45.40;;;;;;4975299;28;20036;-79
2022/04/02 05:00:33;;;;;;;2.95;0.68;;;18.00;45.50;;;;;;4992060;28;20034;-80
2022/04/02 05:02:59;;;;;;;2.10;0.70;;;18.00;45.40;;;;;;4992804;28;20425;-79
2022/04/02 05:05:27;;;;;;;2.95;0.70;;;18.00;45.40;;;;;;4992423;28;20494;-81
2022/04/02 05:07:53;;;;;;;1.52;0.60;;;18.00;45.40;;;;;;4992335;28;20065;-81
2022/04/02 05:10:19;;;;;;;1.98;0.70;;;18.00;45.40;;;;;;4992886;28;20027;-80
2022/04/02 05:12:45;;;;;;;1.52;0.60;;;18.00;45.70;;;;;;4992286;28;20023;-80
2022/04/02 05:15:11;;;;;;;1.85;0.60;;;17.90;45.30;;;;;;4992103;28;20417;-77
2022/04/02 05:17:37;;;;;;;1.85;0.50;;;17.90;45.30;;;;;;4992211;28;20028;-79
2022/04/02 05:20:06;;;;;;;3.28;0.80;;;17.90;45.30;;;;;;4992450;28;20054;-81
2022/04/02 05:22:32;;;;;;;3.28;0.60;;;17.90;45.30;;;;;;4982820;28;20033;-78
2022/04/02 05:24:57;;;;;;;1.83;0.50;;;17.90;45.30;;;;;;4992306;28;20387;-83
2022/04/02 05:27:24;;;;;;;1.63;0.70;;;17.90;45.30;;;;;;4973237;28;20077;-81
2022/04/02 05:29:51;;;;;;;3.05;0.70;;;17.90;45.30;;;;;;4992132;28;20026;-82
2022/04/02 05:32:16;;;;;;;1.35;0.60;;;17.90;45.30;;;;;;4992682;28;20470;-82
2022/04/02 05:34:42;;;;;;;3.72;0.65;;;17.90;45.20;;;;;;4987085;28;20081;-82
2022/04/02 05:37:08;;;;;;;2.42;0.60;;;17.90;45.30;;;;;;4991882;28;20026;-82
2022/04/02 05:39:34;;;;;;;1.77;0.77;;;17.90;45.30;;;;;;4991923;28;20089;-83
2022/04/02 05:42:00;;;;;;;2.35;0.60;;;17.90;45.30;;;;;;4991712;28;20428;-80
2022/04/02 05:44:25;;;;;;;2.42;0.90;;;17.90;45.30;;;;;;4974319;28;20037;-82
2022/04/02 05:46:51;;;;;;;2.42;0.82;;;17.90;45.30;;;;;;4990769;28;20549;-80
2022/04/02 05:49:17;;;;;;;2.13;0.60;;;17.90;45.40;;;;;;4978361;28;20045;-80
2022/04/02 05:51:43;;;;;;;1.73;0.60;;;17.90;45.40;;;;;;4972670;28;20088;-82
2022/04/02 05:54:09;;;;;;;2.67;0.50;;;17.90;45.40;;;;;;4991932;28;20372;-80
2022/04/02 05:56:35;;;;;;;1.42;0.50;;;17.90;45.30;;;;;;4990770;28;20483;-81
2022/04/02 05:59:02;;;;;;;0.85;0.50;;;17.90;45.40;;;;;;4992023;28;20029;-80
2022/04/02 06:01:28;;;;;;;1.30;0.70;;;17.90;45.40;;;;;;4987014;28;20034;-81
2022/04/02 06:03:54;;;;;;;1.58;0.60;;;17.90;45.50;;;;;;4974672;28;20023;-80
2022/04/02 06:06:20;;;;;;;2.42;0.77;;;17.90;45.50;;;;;;4979136;28;20050;-80
2022/04/02 06:08:46;;;;;;;1.65;0.65;;;17.90;45.50;;;;;;4974710;28;20025;-82
2022/04/02 06:11:11;;;;;;;2.33;0.85;;;17.90;45.40;;;;;;4983924;28;20116;-81
2022/04/02 06:13:37;;;;;;;3.03;0.75;;;17.80;45.40;;;;;;4990969;28;20474;-81
2022/04/02 06:16:03;;;;;;;1.17;0.55;;;17.90;45.50;;;;;;4991845;28;20030;-80
2022/04/02 06:18:28;;;;;;;1.63;0.50;;;17.90;45.50;;;;;;4981311;28;20011;-81
2022/04/02 06:20:54;;;;;;;1.73;0.60;;;17.90;45.50;;;;;;4983350;28;20105;-81
2022/04/02 06:23:19;;;;;;;3.85;0.80;;;17.90;45.60;;;;;;4995730;28;20027;-78
2022/04/02 06:25:45;;;;;;;3.08;0.77;;;17.90;45.70;;;;;;4994774;28;20498;-77
2022/04/02 06:28:11;;;;;;;4.00;0.60;;;17.90;45.90;;;;;;4994964;28;20037;-79
2022/04/02 06:30:37;;;;;;;2.83;0.70;;;17.90;46.00;;;;;;4991120;28;20042;-78
2022/04/02 06:33:04;;;;;;;4.85;0.90;;;17.90;46.40;;;;;;4995056;28;20105;-76
2022/04/02 06:35:30;;;;;;;7.85;0.90;;;17.90;46.70;;;;;;4985138;28;20035;-79
2022/04/02 06:37:59;;;;;;;3.70;0.80;;;18.00;46.70;;;;;;4958371;28;20034;-77
2022/04/02 06:40:25;;;;;;;4.13;0.68;;;18.00;46.90;;;;;;4974751;28;20486;-79
2022/04/02 06:42:52;;;;;;;1.52;0.60;;;18.00;46.70;;;;;;4995328;28;20026;-77
2022/04/02 06:45:18;;;;;;;4.53;1.00;;;18.00;46.60;;;;;;4979787;28;20041;-77
2022/04/02 06:47:44;;;;;;;5.20;2.10;;;18.00;46.50;;;;;;4992298;28;21628;-77
2022/04/02 06:50:12;;;;;;;5.70;2.90;;;18.00;46.40;;;;;;4995284;28;20101;-76
2022/04/02 06:52:38;;;;;;;4.38;2.42;;;18.00;46.50;;;;;;4994290;28;20094;-75
2022/04/02 06:55:05;;;;;;;8.07;3.10;;;18.10;46.60;;;;;;4981465;28;20031;-74
2022/04/02 06:57:30;;;;;;;7.20;2.85;;;18.10;46.70;;;;;;4975484;28;20030;-77
2022/04/02 06:59:56;;;;;;;7.65;2.40;;;18.10;46.70;;;;;;4985313;28;20037;-77
2022/04/02 07:02:22;;;;;;;5.93;1.73;;;18.10;46.90;;;;;;4980738;28;20033;-78
2022/04/02 07:04:48;;;;;;;4.45;1.90;;;18.10;46.90;;;;;;4979612;28;20113;-77
2022/04/02 07:07:14;;;;;;;3.67;1.75;;;18.20;47.10;;;;;;4993242;28;20054;-77
2022/04/02 07:09:40;;;;;;;3.33;1.45;;;18.20;47.00;;;;;;4992945;28;20069;-77
2022/04/02 07:12:07;;;;;;;5.50;1.58;;;18.20;46.90;;;;;;4981282;28;20443;-78
2022/04/02 07:14:33;;;;;;;5.45;1.80;;;18.20;46.80;;;;;;4994457;28;20070;-79
2022/04/02 07:16:59;;;;;;;3.92;1.60;;;18.20;46.90;;;;;;4993377;28;20026;-79
2022/04/02 07:19:25;;;;;;;7.03;1.27;;;18.20;46.80;;;;;;4994212;28;20027;-78
2022/04/02 07:21:53;;;;;;;3.53;1.17;;;18.20;47.20;;;;;;4994644;28;20573;-78
2022/04/02 07:24:20;;;;;;;4.80;1.10;;;18.30;46.80;;;;;;4977404;28;20022;-77
2022/04/02 07:26:47;;;;;;;3.20;1.13;;;18.30;46.40;;;;;;4994292;28;20037;-75
2022/04/02 07:29:15;;;;;;;3.75;1.55;;;18.30;46.50;;;;;;4994255;28;20023;-77
2022/04/02 07:31:44;;;;;;;3.75;1.17;;;18.30;46.70;;;;;;4993464;28;20757;-79
2022/04/02 07:34:11;;;;;;;5.25;1.23;;;18.40;46.60;;;;;;4976988;28;20493;-78
2022/04/02 07:37:08;;;;;;;4.05;0.90;;;18.50;47.10;;;;;;4994189;28;20117;-77
2022/04/02 07:39:52;;;;;;;5.07;1.25;;;18.50;47.80;;;;;;4993941;28;20105;-78
2022/04/02 07:42:26;;;;;;;4.55;1.60;;;18.60;47.20;;;;;;4994778;28;20470;-79
2022/04/02 07:45:06;;;;;;;1.98;0.90;;;18.50;47.20;;;;;;4994128;28;20062;-80
2022/04/02 07:47:43;;;;;;;2.72;1.10;;;18.50;47.10;;;;;;4976095;28;20129;-78
2022/04/02 07:50:14;;;;;;;3.47;1.33;;;18.60;47.00;;;;;;4994272;28;20031;-78
2022/04/02 07:52:45;;;;;;;2.38;1.00;;;18.50;47.00;;;;;;4994051;28;20042;-79
2022/04/02 07:55:11;;;;;;;4.47;0.88;;;18.50;47.10;;;;;;4993592;28;20335;-78
2022/04/02 07:57:49;;;;;;;3.83;1.02;;;18.50;47.10;;;;;;4976275;28;20027;-80
2022/04/02 08:00:18;;;;;;;2.83;1.15;;;18.60;47.40;;;;;;4994057;28;20100;-79
2022/04/02 08:02:45;;;;;;;2.00;0.85;;;18.60;47.10;;;;;;4976303;28;20125;-79
2022/04/02 08:05:21;;;;;;;6.10;0.80;;;18.60;47.20;;;;;;4990206;28;20042;-78
2022/04/02 08:07:50;;;;;;;5.05;1.05;;;18.60;47.30;;;;;;4993115;28;20065;-78
2022/04/02 08:10:17;;;;;;;3.97;0.90;;;18.60;47.80;;;;;;4993751;28;20360;-78
2022/04/02 08:12:44;;;;;;;3.17;0.98;;;18.60;48.00;;;;;;4976067;28;20037;-78
2022/04/02 08:15:12;;;;;;;6.43;1.20;;;18.50;47.90;;;;;;4994008;28;20084;-80
2022/04/02 08:17:43;;;;;;;5.15;1.00;;;18.50;47.20;;;;;;4975942;28;20578;-80
2022/04/02 08:20:10;;;;;;;5.85;1.00;;;18.50;47.60;;;;;;4976195;28;20053;-82
2022/04/02 08:22:36;;;;;;;4.28;0.88;;;18.50;47.30;;;;;;4992894;28;20034;-79
2022/04/02 08:25:03;;;;;;;3.75;1.00;;;18.50;47.30;;;;;;4993524;28;20113;-80
2022/04/02 08:27:37;;;;;;;8.50;1.63;;;18.50;46.90;;;;;;4993241;28;20019;-78
2022/04/02 08:30:09;;;;;;;12.48;1.48;;;18.50;47.00;;;;;;4993483;28;20415;-79
2022/04/02 08:32:42;;;;;;;14.95;2.17;;;18.60;47.00;;;;;;4975173;28;20070;-79
2022/04/02 08:35:10;;;;;;;22.55;2.70;;;18.60;46.90;;;;;;4974000;28;20081;-78
2022/04/02 08:37:51;;;;;;;14.50;2.42;;;18.60;47.50;;;;;;4987631;28;20153;-78
2022/04/02 08:40:31;;;;;;;32.03;4.15;;;18.70;46.90;;;;;;4974055;28;20101;-76
2022/04/02 08:43:23;;;;;;;24.95;2.35;;;18.70;46.70;;;;;;4983388;28;20034;-75
2022/04/02 08:45:54;;;;;;;20.15;2.95;;;18.70;46.60;;;;;;4993587;28;20503;-75
2022/04/02 08:48:28;;;;;;;18.98;2.75;;;18.60;46.30;;;;;;4993479;28;20483;-74
2022/04/02 08:51:14;;;;;;;22.00;2.05;;;18.60;46.20;;;;;;4992845;28;20041;-74
2022/04/02 08:53:42;;;;;;;;;;;18.70;46.10;;;;;;4986945;28;20031;-77
2022/04/02 08:56:16;;;;;;;16.17;2.55;;;18.60;46.00;;;;;;4974275;28;19906;-76
2022/04/02 08:59:04;;;;;;;16.83;2.63;;;18.60;46.10;;;;;;4992714;28;20037;-76
2022/04/02 09:01:51;;;;;;;21.67;2.25;;;18.60;46.20;;;;;;4992696;28;20034;-76
2022/04/02 09:04:51;;;;;;;17.05;2.70;;;18.70;46.10;;;;;;4992729;28;20045;-76
2022/04/02 09:08:01;;;;;;;15.25;2.50;;;18.70;45.90;;;;;;4975596;28;20085;-74
2022/04/02 09:10:51;;;;;;;22.80;2.85;;;18.70;46.10;;;;;;4960396;28;20501;-74
2022/04/02 09:13:31;;;;;;;14.82;2.75;;;18.70;46.00;;;;;;4986791;28;20022;-74
2022/04/02 09:16:07;;;;;;;12.48;2.08;;;18.70;46.00;;;;;;4978637;28;20026;-79
2022/04/02 09:19:05;;;;;;;8.63;1.70;;;18.70;46.00;;;;;;4973654;28;20029;-75
2022/04/02 09:22:18;;;;;;;20.30;2.38;;;18.80;45.90;;;;;;4991639;28;20062;-78
2022/04/02 09:25:39;;;;;;;11.93;1.77;;;18.70;46.00;;;;;;4987581;28;20029;-77
2022/04/02 09:28:05;;;;;;;13.43;2.47;;;18.70;46.00;;;;;;4989252;28;20049;-76
2022/04/02 09:31:09;;;;;;;10.60;1.80;;;18.70;46.20;;;;;;4973921;28;20031;-76
2022/04/02 09:33:59;;;;;;;8.80;1.80;;;18.70;45.80;;;;;;4973824;28;20076;-77
2022/04/02 09:36:59;;;;;;;10.35;1.60;;;18.70;45.60;;;;;;4974342;28;20022;-76
2022/04/02 09:39:36;;;;;;;9.95;1.35;;;18.60;45.60;;;;;;4981331;28;20402;-79
2022/04/02 09:42:20;;;;;;;6.65;1.60;;;18.60;45.60;;;;;;4991744;28;20024;-77
2022/04/02 09:45:14;;;;;;;6.47;1.55;;;18.60;45.50;;;;;;4991253;28;20516;-77
2022/04/02 09:48:06;;;;;;;5.20;1.48;;;18.70;45.50;;;;;;4979340;28;20042;-76
2022/04/02 09:50:33;;;;;;;6.38;1.25;;;18.60;45.60;;;;;;4942552;28;20418;-77
2022/04/02 09:53:16;;;;;;;7.90;1.58;;;18.60;45.50;;;;;;4989441;28;20053;-76
2022/04/02 09:55:52;;;;;;;5.57;1.55;;;18.60;45.10;;;;;;4990853;28;20124;-77
2022/04/02 09:58:44;;;;;;;8.02;1.88;;;18.60;45.40;;;;;;4971868;28;20026;-76
2022/04/02 10:01:33;;;;;;;8.65;1.70;;;18.60;44.50;;;;;;4990985;28;20064;-75
2022/04/02 10:04:00;;;;;;;12.80;1.95;;;18.60;44.40;;;;;;4979572;28;20027;-75
2022/04/02 10:06:38;;;;;;;6.22;1.63;;;18.60;44.20;;;;;;4989091;28;20096;-79
2022/04/02 10:09:14;;;;;;;8.10;1.55;;;18.60;44.10;;;;;;4987366;28;20081;-75
2022/04/02 10:11:53;;;;;;;7.43;1.60;;;18.60;44.20;;;;;;4990425;28;20076;-75
2022/04/02 10:14:22;;;;;;;5.13;1.33;;;18.60;44.20;;;;;;4987749;28;20033;-77
2022/04/02 10:17:06;;;;;;;3.95;1.20;;;18.60;44.40;;;;;;4990232;28;20033;-74
2022/04/02 10:19:38;;;;;;;3.78;1.27;;;18.60;44.60;;;;;;4979130;28;20043;-78
2022/04/02 10:22:09;;;;;;;5.53;1.30;;;18.60;44.60;;;;;;4963717;28;20038;-76
2022/04/02 10:24:51;;;;;;;8.30;1.45;;;18.60;44.90;;;;;;4977978;28;20038;-78
2022/04/02 10:27:34;;;;;;;13.00;1.85;;;18.60;45.20;;;;;;4982449;28;20038;-78
2022/04/02 10:30:10;;;;;;;7.30;1.25;;;18.70;45.40;;;;;;4991712;28;20030;-79
2022/04/02 10:32:51;;;;;;;9.20;1.25;;;18.70;45.80;;;;;;4991192;28;20030;-77
2022/04/02 10:35:18;;;;;;;8.68;1.70;;;18.70;46.60;;;;;;4991209;28;20537;-79
2022/04/02 10:37:58;;;;;;;6.55;0.93;;;18.70;46.70;;;;;;4991088;28;20054;-76
2022/04/02 10:40:25;;;;;;;3.97;0.95;;;18.70;46.90;;;;;;4973495;28;20022;-77
2022/04/02 10:42:57;;;;;;;5.60;1.10;;;18.80;47.10;;;;;;4991528;28;20029;-77
2022/04/02 10:45:27;;;;;;;5.38;1.00;;;18.80;47.10;;;;;;4991171;28;20038;-76
2022/04/02 10:48:02;;;;;;;6.55;1.10;;;18.70;47.20;;;;;;4981356;28;20026;-74
2022/04/02 10:50:29;;;;;;;2.88;0.93;;;18.70;47.00;;;;;;4954809;28;20031;-77
2022/04/02 10:53:01;;;;;;;5.90;1.15;;;18.70;47.10;;;;;;4971643;28;20081;-77
2022/04/02 10:55:28;;;;;;;9.45;1.33;;;18.70;47.10;;;;;;4971747;28;20031;-78
2022/04/02 10:58:00;;;;;;;7.80;1.55;;;18.70;47.10;;;;;;4969870;28;20061;-78
2022/04/02 11:00:27;;;;;;;7.88;1.23;;;18.70;47.20;;;;;;4972679;28;20058;-80
2022/04/02 11:03:04;;;;;;;8.82;1.13;;;18.70;47.20;;;;;;4990291;28;20026;-77
2022/04/02 11:05:34;;;;;;;5.43;1.15;;;18.70;47.40;;;;;;4992964;28;20070;-78
2022/04/02 11:08:09;;;;;;;5.97;1.27;;;18.70;47.40;;;;;;4993769;28;20029;-81
2022/04/02 11:10:35;;;;;;;6.85;1.27;;;18.80;47.00;;;;;;4993519;28;20026;-81
2022/04/02 11:13:04;;;;;;;3.72;0.90;;;18.80;46.70;;;;;;4976264;28;20034;-81
2022/04/02 11:15:36;;;;;;;7.10;1.23;;;18.80;46.60;;;;;;4977020;28;20410;-82
2022/04/02 11:18:03;;;;;;;2.47;0.90;;;18.90;46.70;;;;;;4994894;28;20054;-79
2022/04/02 11:20:33;;;;;;;4.88;1.10;;;18.80;46.40;;;;;;4994564;28;20061;-81
2022/04/02 11:23:19;;;;;;;7.43;1.00;;;18.80;46.30;;;;;;4994828;28;20109;-81
2022/04/02 11:25:49;;;;;;;5.88;0.90;;;18.90;46.40;;;;;;4977009;28;20105;-79
2022/04/02 11:28:20;;;;;;;6.65;0.85;;;18.90;46.20;;;;;;4977039;28;20027;-81
2022/04/02 11:31:01;;;;;;;4.38;1.13;;;18.90;46.00;;;;;;4995126;28;20093;-80
2022/04/02 11:33:27;;;;;;;3.97;1.00;;;18.90;45.90;;;;;;4976764;28;20018;-81
2022/04/02 11:35:52;;;;;;;6.53;1.02;;;18.90;45.80;;;;;;4976939;28;20550;-79
2022/04/02 11:38:51;;;;;;;4.75;1.10;;;18.90;45.70;;;;;;4977249;28;20062;-80
2022/04/02 11:41:32;;;;;;;4.40;0.82;;;18.90;45.60;;;;;;4994822;28;20022;-80
2022/04/02 11:44:05;;;;;;;1.67;0.70;;;18.90;45.50;;;;;;4994698;28;20033;-79
2022/04/02 11:46:52;;;;;;;4.28;0.82;;;18.90;45.40;;;;;;4993871;28;20041;-82
2022/04/02 11:49:32;;;;;;;4.32;1.02;;;18.90;45.30;;;;;;4976825;28;20442;-81
2022/04/02 11:52:04;;;;;;;2.63;0.70;;;19.00;45.10;;;;;;4994100;28;20422;-77
2022/04/02 11:54:31;;;;;;;2.58;0.75;;;19.00;45.10;;;;;;4976367;28;20023;-79
2022/04/02 11:57:11;;;;;;;3.63;0.95;;;18.90;45.00;;;;;;4994063;28;20032;-81
2022/04/02 11:59:37;;;;;;;3.92;1.05;;;18.90;44.90;;;;;;4976074;28;20053;-80
2022/04/02 12:02:04;;;;;;;3.55;0.60;;;18.90;44.90;;;;;;4976518;28;20077;-79
2022/04/02 12:04:30;;;;;;;1.75;0.70;;;18.90;44.90;;;;;;4993260;28;20084;-79
2022/04/02 12:07:06;;;;;;;4.95;0.60;;;18.90;44.90;;;;;;4993386;28;20521;-77
2022/04/02 12:09:33;;;;;;;2.97;0.70;;;18.90;44.50;;;;;;4976076;28;20085;-80
2022/04/02 12:12:02;;;;;;;2.53;0.70;;;18.90;44.60;;;;;;4976344;28;20117;-80
2022/04/02 12:14:34;;;;;;;4.13;1.05;;;18.90;44.30;;;;;;4976013;28;20117;-79
2022/04/02 12:17:11;;;;;;;5.53;1.02;;;18.90;44.50;;;;;;4974989;28;20398;-78
2022/04/02 12:19:47;;;;;;;6.00;1.10;;;18.90;44.50;;;;;;4990405;28;20524;-77
2022/04/02 12:22:15;;;;;;;;;;;19.20;45.00;;;;;;4968205;28;20438;-78
2022/04/02 12:24:47;;;;;;;5.55;0.68;;;19.60;45.30;;;;;;4973792;28;19920;-77
2022/04/02 12:27:19;;;;;;;5.82;0.60;;;19.80;45.00;;;;;;4977918;28;20018;-79
2022/04/02 12:29:47;;;;;;;5.57;1.00;;;20.00;45.00;;;;;;4975199;28;20130;-77
2022/04/02 12:32:29;;;;;;;2.42;0.80;;;20.30;45.00;;;;;;4961891;28;20402;-80
2022/04/02 12:34:59;;;;;;;2.97;0.75;;;20.40;45.20;;;;;;4993228;28;20049;-80
2022/04/02 12:37:28;;;;;;;2.75;0.68;;;20.50;45.10;;;;;;4988321;28;20018;-80
2022/04/02 12:39:54;;;;;;;4.20;0.65;;;20.50;45.40;;;;;;4993305;28;20391;-78
2022/04/02 12:42:39;;;;;;;3.75;1.15;;;20.40;45.10;;;;;;4993552;28;20019;-78
2022/04/02 12:45:11;;;;;;;8.65;0.98;;;20.40;44.70;;;;;;4987482;28;20038;-77
2022/04/02 12:47:37;;;;;;;12.05;0.90;;;20.40;44.80;;;;;;4990457;28;20113;-80
2022/04/02 12:50:14;;;;;;;2.45;0.70;;;20.40;44.60;;;;;;4990120;28;20466;-80
2022/04/02 12:52:45;;;;;;;2.97;1.00;;;20.40;44.10;;;;;;4989679;28;20065;-78
2022/04/02 12:55:19;;;;;;;4.35;1.15;;;20.40;44.00;;;;;;4988866;28;20023;-80
2022/04/02 12:58:05;;;;;;;4.90;1.17;;;20.40;43.80;;;;;;4971322;28;20117;-79
2022/04/02 13:00:43;;;;;;;2.67;0.90;;;20.50;43.40;;;;;;4991883;28;20093;-78
2022/04/02 13:03:09;;;;;;;9.23;1.17;;;20.60;43.30;;;;;;4992256;28;20050;-76
2022/04/02 13:05:48;;;;;;;8.23;1.10;;;20.80;43.40;;;;;;5007608;28;20044;-87